createdAt,value
2018-12-08T00:00:47.370Z,12.10
2018-12-08T00:03:15.921Z,12.10
2018-12-08T00:05:44.264Z,12.10
2018-12-08T00:08:12.496Z,12.00
2018-12-08T00:10:41.017Z,12.10
2018-12-08T00:13:09.395Z,12.00
2018-12-08T00:15:37.738Z,12.00
2018-12-08T00:18:06.050Z,12.00
2018-12-08T00:20:34.603Z,11.90
2018-12-08T00:23:02.865Z,11.90
2018-12-08T00:25:31.223Z,12.00
2018-12-08T00:27:59.503Z,11.90
2018-12-08T00:31:46.058Z,11.70
2018-12-08T00:34:14.544Z,11.50
2018-12-08T00:36:43.457Z,10.20
2018-12-08T00:39:11.845Z,9.60
2018-12-08T00:41:40.198Z,9.10
2018-12-08T00:44:08.712Z,8.80
2018-12-08T00:46:37.084Z,8.60
2018-12-08T00:49:05.440Z,8.50
2018-12-08T00:51:33.742Z,8.50
2018-12-08T00:54:06.994Z,8.40
2018-12-08T00:56:36.272Z,8.30
2018-12-08T00:59:04.595Z,8.30
2018-12-08T01:01:32.940Z,8.20
2018-12-08T01:04:01.267Z,8.00
2018-12-08T01:06:30.574Z,8.00
2018-12-08T01:08:58.871Z,7.90
2018-12-08T01:11:27.151Z,7.90
2018-12-08T01:13:55.418Z,7.90
2018-12-08T01:16:23.762Z,7.90
2018-12-08T01:18:52.088Z,7.90
2018-12-08T01:21:20.800Z,7.90
2018-12-08T01:23:49.200Z,7.90
2018-12-08T01:26:17.628Z,7.80
2018-12-08T01:28:45.883Z,7.80
2018-12-08T01:31:14.235Z,7.70
2018-12-08T01:33:42.609Z,7.70
2018-12-08T01:36:10.969Z,7.70
2018-12-08T01:38:39.434Z,7.70
2018-12-08T01:41:07.799Z,7.70
2018-12-08T01:43:36.185Z,7.60
2018-12-08T01:46:04.610Z,7.50
2018-12-08T01:48:33.029Z,7.50
2018-12-08T01:51:01.378Z,7.40
2018-12-08T01:53:29.825Z,7.50
2018-12-08T01:55:58.039Z,7.50
2018-12-08T01:58:26.222Z,7.40
2018-12-08T02:00:54.478Z,7.30
2018-12-08T02:03:22.786Z,7.30
2018-12-08T02:05:51.212Z,7.30
2018-12-08T02:08:19.530Z,7.20
2018-12-08T02:10:47.899Z,7.20
2018-12-08T02:13:16.355Z,7.20
2018-12-08T02:15:44.894Z,7.20
2018-12-08T02:18:13.303Z,7.10
2018-12-08T02:20:41.550Z,7.10
2018-12-08T02:23:09.817Z,7.00
2018-12-08T02:25:38.092Z,7.00
2018-12-08T02:28:06.342Z,7.10
2018-12-08T02:30:34.777Z,7.00
2018-12-08T02:33:03.053Z,6.90
2018-12-08T02:35:31.382Z,6.90
2018-12-08T02:37:59.719Z,6.90
2018-12-08T02:40:28.058Z,6.80
2018-12-08T02:42:56.700Z,6.80
2018-12-08T02:45:24.976Z,6.80
2018-12-08T02:47:53.198Z,6.80
2018-12-08T02:50:21.572Z,6.80
2018-12-08T02:52:49.775Z,6.80
2018-12-08T02:55:18.281Z,6.80
2018-12-08T02:57:46.479Z,6.90
2018-12-08T03:00:14.854Z,7.00
2018-12-08T03:02:43.218Z,6.90
2018-12-08T03:05:11.578Z,6.80
2018-12-08T03:07:39.997Z,6.90
2018-12-08T03:10:08.389Z,6.90
2018-12-08T03:12:36.911Z,6.90
2018-12-08T03:15:05.360Z,6.80
2018-12-08T03:17:33.808Z,6.80
2018-12-08T03:20:02.139Z,6.80
2018-12-08T03:22:30.595Z,6.80
2018-12-08T03:24:58.916Z,6.80
2018-12-08T03:27:27.398Z,6.80
2018-12-08T03:29:55.743Z,6.80
2018-12-08T03:32:24.078Z,6.80
2018-12-08T03:34:52.442Z,6.80
2018-12-08T03:37:20.835Z,6.80
2018-12-08T03:39:49.114Z,6.80
2018-12-08T03:42:17.987Z,6.80
2018-12-08T03:44:46.483Z,6.80
2018-12-08T03:47:14.747Z,6.80
2018-12-08T03:49:43.108Z,6.80
2018-12-08T03:52:11.623Z,6.80
2018-12-08T03:54:39.971Z,6.90
2018-12-08T03:57:08.302Z,7.00
2018-12-08T03:59:36.474Z,7.00
2018-12-08T04:02:04.852Z,6.90
2018-12-08T04:04:33.043Z,7.00
2018-12-08T04:07:01.496Z,6.90
2018-12-08T04:09:29.938Z,6.80
2018-12-08T04:11:58.220Z,6.90
2018-12-08T04:14:26.500Z,6.90
2018-12-08T04:16:54.780Z,6.90
2018-12-08T04:19:23.029Z,6.90
2018-12-08T04:21:51.394Z,7.00
2018-12-08T04:24:19.551Z,6.90
2018-12-08T04:26:47.750Z,7.00
2018-12-08T04:29:16.320Z,7.00
2018-12-08T04:31:44.663Z,7.00
2018-12-08T04:34:12.944Z,7.10
2018-12-08T04:36:41.239Z,7.00
2018-12-08T04:39:09.437Z,7.10
2018-12-08T04:41:37.694Z,7.10
2018-12-08T04:44:05.974Z,7.20
2018-12-08T04:46:34.259Z,7.20
2018-12-08T04:49:02.568Z,7.30
2018-12-08T04:51:30.862Z,7.30
2018-12-08T04:53:59.315Z,7.30
2018-12-08T04:56:28.443Z,7.30
2018-12-08T04:58:56.739Z,7.30
2018-12-08T05:01:25.208Z,7.30
2018-12-08T05:03:53.420Z,7.30
2018-12-08T05:06:21.744Z,7.30
2018-12-08T05:08:50.051Z,7.40
2018-12-08T05:11:18.350Z,7.20
2018-12-08T05:13:46.652Z,7.20
2018-12-08T05:16:15.135Z,7.10
2018-12-08T05:18:43.657Z,7.10
2018-12-08T05:21:11.874Z,7.00
2018-12-08T05:23:40.185Z,6.90
2018-12-08T05:26:08.473Z,6.90
2018-12-08T05:28:36.851Z,6.90
2018-12-08T05:31:05.034Z,6.90
2018-12-08T05:33:33.615Z,6.80
2018-12-08T05:36:01.815Z,6.80
2018-12-08T05:38:30.250Z,6.70
2018-12-08T05:40:58.675Z,6.70
2018-12-08T05:43:26.999Z,6.70
2018-12-08T05:45:55.405Z,6.60
2018-12-08T05:48:23.624Z,6.60
2018-12-08T05:50:52.071Z,6.50
2018-12-08T05:53:20.250Z,6.70
2018-12-08T05:55:49.582Z,6.60
2018-12-08T05:58:18.062Z,6.70
2018-12-08T06:00:46.339Z,6.70
2018-12-08T06:03:14.703Z,6.70
2018-12-08T06:05:42.923Z,6.60
2018-12-08T06:08:11.248Z,6.60
2018-12-08T06:10:39.482Z,6.70
2018-12-08T06:13:07.802Z,6.60
2018-12-08T06:15:36.074Z,6.70
2018-12-08T06:18:05.336Z,6.70
2018-12-08T06:20:33.719Z,6.80
2018-12-08T06:23:01.898Z,6.70
2018-12-08T06:25:33.092Z,6.70
2018-12-08T06:28:09.545Z,6.70
2018-12-08T06:30:38.123Z,6.70
2018-12-08T06:33:06.407Z,6.70
2018-12-08T06:35:34.718Z,6.70
2018-12-08T06:38:03.126Z,6.70
2018-12-08T06:40:31.395Z,6.70
2018-12-08T06:42:59.726Z,6.60
2018-12-08T06:45:27.951Z,6.70
2018-12-08T06:47:56.216Z,6.70
2018-12-08T06:50:24.574Z,6.60
2018-12-08T06:52:52.856Z,6.70
2018-12-08T06:55:21.119Z,6.70
2018-12-08T06:57:49.472Z,6.70
2018-12-08T07:00:18.149Z,6.70
2018-12-08T07:02:46.425Z,6.70
2018-12-08T07:05:14.724Z,6.80
2018-12-08T07:07:43.035Z,6.70
2018-12-08T07:10:11.295Z,6.60
2018-12-08T07:12:39.630Z,6.60
2018-12-08T07:15:07.854Z,6.70
2018-12-08T07:17:36.162Z,6.70
2018-12-08T07:20:05.545Z,6.70
2018-12-08T07:22:34.013Z,6.60
2018-12-08T07:25:02.154Z,6.50
2018-12-08T07:27:30.455Z,6.70
2018-12-08T07:29:58.905Z,6.70
2018-12-08T07:32:27.252Z,6.80
2018-12-08T07:34:55.677Z,6.90
2018-12-08T07:37:23.898Z,6.90
2018-12-08T07:39:52.279Z,6.90
2018-12-08T07:42:20.455Z,7.10
2018-12-08T07:44:51.616Z,7.10
2018-12-08T07:47:20.112Z,7.10
2018-12-08T07:49:48.502Z,7.10
2018-12-08T07:52:16.986Z,7.10
2018-12-08T07:54:45.295Z,7.10
2018-12-08T07:57:14.423Z,7.30
2018-12-08T07:59:42.868Z,7.20
2018-12-08T08:02:11.099Z,7.30
2018-12-08T08:04:39.474Z,7.30
2018-12-08T08:07:07.741Z,7.30
2018-12-08T08:09:36.021Z,7.50
2018-12-08T08:12:04.465Z,7.50
2018-12-08T08:14:32.719Z,7.60
2018-12-08T08:17:01.075Z,7.70
2018-12-08T08:19:29.423Z,8.20
2018-12-08T08:21:57.631Z,8.60
2018-12-08T08:24:25.935Z,8.80
2018-12-08T08:26:54.151Z,9.30
2018-12-08T08:29:22.472Z,9.40
2018-12-08T08:31:50.694Z,9.30
2018-12-08T08:34:19.011Z,9.50
2018-12-08T08:36:47.178Z,9.50
2018-12-08T08:39:15.712Z,9.70
2018-12-08T08:41:44.078Z,9.60
2018-12-08T08:44:12.429Z,9.50
2018-12-08T08:46:40.712Z,9.60
2018-12-08T08:49:09.316Z,9.80
2018-12-08T08:51:38.218Z,9.60
2018-12-08T08:54:06.761Z,9.60
2018-12-08T08:56:35.039Z,9.80
2018-12-08T08:59:03.748Z,10.00
2018-12-08T09:01:32.246Z,10.10
2018-12-08T09:04:00.847Z,10.20
2018-12-08T09:06:29.561Z,10.30
2018-12-08T09:08:58.070Z,10.50
2018-12-08T09:11:26.339Z,10.70
2018-12-08T09:13:54.666Z,10.80
2018-12-08T09:16:23.000Z,11.10
2018-12-08T09:18:51.333Z,11.00
2018-12-08T09:21:19.714Z,11.00
2018-12-08T09:23:48.110Z,11.30
2018-12-08T09:26:16.624Z,11.40
2018-12-08T09:28:44.931Z,11.20
2018-12-08T09:31:13.396Z,11.40
2018-12-08T09:33:41.668Z,11.70
2018-12-08T09:36:09.959Z,11.60
2018-12-08T09:38:38.331Z,11.10
2018-12-08T09:41:06.748Z,11.70
2018-12-08T09:43:35.189Z,11.40
2018-12-08T09:46:03.710Z,11.60
2018-12-08T09:48:32.159Z,12.00
2018-12-08T09:51:01.679Z,11.80
2018-12-08T09:53:30.950Z,12.20
2018-12-08T09:55:59.643Z,11.40
2018-12-08T09:58:27.935Z,11.70
2018-12-08T10:00:56.378Z,11.40
2018-12-08T10:03:24.615Z,11.30
2018-12-08T10:05:53.046Z,12.30
2018-12-08T10:08:21.273Z,11.80
2018-12-08T10:10:49.655Z,12.30
2018-12-08T10:13:18.067Z,11.70
2018-12-08T10:15:46.341Z,11.30
2018-12-08T10:18:14.622Z,11.10
2018-12-08T10:20:42.940Z,11.10
2018-12-08T10:23:11.172Z,11.60
2018-12-08T10:25:39.644Z,12.10
2018-12-08T10:28:09.022Z,12.60
2018-12-08T10:30:37.358Z,12.00
2018-12-08T10:33:05.747Z,11.80
2018-12-08T10:35:34.943Z,12.10
2018-12-08T10:38:03.479Z,12.30
2018-12-08T10:40:31.707Z,11.80
2018-12-08T10:42:59.926Z,12.10
2018-12-08T10:45:28.227Z,12.00
2018-12-08T10:47:56.486Z,12.10
2018-12-08T10:50:24.820Z,11.50
2018-12-08T10:52:53.106Z,10.70
2018-12-08T10:55:21.381Z,10.40
2018-12-08T10:57:49.590Z,10.60
2018-12-08T11:00:23.651Z,10.50
2018-12-08T11:02:56.970Z,10.50
2018-12-08T11:05:25.324Z,10.50
2018-12-08T11:07:53.527Z,11.20
2018-12-08T11:10:21.817Z,11.10
2018-12-08T11:12:50.121Z,10.30
2018-12-08T11:15:18.574Z,10.10
2018-12-08T11:17:46.815Z,10.00
2018-12-08T11:20:15.189Z,9.80
2018-12-08T11:22:43.366Z,9.90
2018-12-08T11:25:11.630Z,10.20
2018-12-08T11:27:39.977Z,10.40
2018-12-08T11:30:08.534Z,10.10
2018-12-08T11:32:36.973Z,9.80
2018-12-08T11:35:05.284Z,9.90
2018-12-08T11:37:33.409Z,9.90
2018-12-08T11:40:01.650Z,9.80
2018-12-08T11:42:30.022Z,9.60
2018-12-08T11:44:58.728Z,9.60
2018-12-08T11:47:27.043Z,9.70
2018-12-08T11:49:55.384Z,9.70
2018-12-08T11:52:23.687Z,10.00
2018-12-08T11:54:52.019Z,10.70
2018-12-08T11:57:20.288Z,11.00
2018-12-08T11:59:48.531Z,10.50
2018-12-08T12:02:17.079Z,10.20
2018-12-08T12:04:45.376Z,10.10
2018-12-08T12:07:13.659Z,10.00
2018-12-08T12:09:42.062Z,9.60
2018-12-08T12:12:10.342Z,9.60
2018-12-08T12:14:43.716Z,9.60
2018-12-08T12:17:12.042Z,9.50
2018-12-08T12:19:40.357Z,9.60
2018-12-08T12:22:08.730Z,9.50
2018-12-08T12:24:36.943Z,9.50
2018-12-08T12:27:05.199Z,9.80
2018-12-08T12:29:33.448Z,10.20
2018-12-08T12:32:01.753Z,10.30
2018-12-08T12:34:30.126Z,10.90
2018-12-08T12:36:58.417Z,11.00
2018-12-08T12:39:26.641Z,11.00
2018-12-08T12:41:54.910Z,10.50
2018-12-08T12:44:23.115Z,11.40
2018-12-08T12:46:51.456Z,11.60
2018-12-08T12:49:19.900Z,11.60
2018-12-08T12:51:48.069Z,12.00
2018-12-08T12:54:16.506Z,12.00
2018-12-08T12:56:44.806Z,12.10
2018-12-08T12:59:12.999Z,12.30
2018-12-08T13:01:41.304Z,12.60
2018-12-08T13:04:09.555Z,12.70
2018-12-08T13:06:37.866Z,12.50
2018-12-08T13:09:06.994Z,12.50
2018-12-08T13:11:35.560Z,12.50
2018-12-08T13:14:04.009Z,12.40
2018-12-08T13:16:32.439Z,11.80
2018-12-08T13:19:00.708Z,11.40
2018-12-08T13:21:29.115Z,10.60
2018-12-08T13:23:57.565Z,10.20
2018-12-08T13:26:25.920Z,9.90
2018-12-08T13:28:54.187Z,9.70
2018-12-08T13:31:22.395Z,9.50
2018-12-08T13:33:52.331Z,9.50
2018-12-08T13:36:20.578Z,9.60
2018-12-08T13:38:48.867Z,9.50
2018-12-08T13:41:17.229Z,9.50
2018-12-08T13:43:54.016Z,9.50
2018-12-08T13:46:23.407Z,9.40
2018-12-08T13:48:51.668Z,9.30
2018-12-08T13:51:20.035Z,9.10
2018-12-08T13:53:48.272Z,9.10
2018-12-08T13:56:16.965Z,9.00
2018-12-08T13:58:45.201Z,9.00
2018-12-08T14:01:13.415Z,8.90
2018-12-08T14:03:41.819Z,8.90
2018-12-08T14:06:10.049Z,9.00
2018-12-08T14:08:38.451Z,8.80
2018-12-08T14:11:06.853Z,8.90
2018-12-08T14:13:35.103Z,8.80
2018-12-08T14:16:03.385Z,8.80
2018-12-08T14:18:31.604Z,8.80
2018-12-08T14:20:59.988Z,8.80
2018-12-08T14:23:28.310Z,8.80
2018-12-08T14:25:56.606Z,8.80
2018-12-08T14:28:24.885Z,8.70
2018-12-08T14:30:53.150Z,8.80
2018-12-08T14:33:21.482Z,8.70
2018-12-08T14:35:49.744Z,8.80
2018-12-08T14:38:18.435Z,8.80
2018-12-08T14:40:46.693Z,8.70
2018-12-08T14:43:14.971Z,8.70
2018-12-08T14:45:43.139Z,8.60
2018-12-08T14:48:11.399Z,8.60
2018-12-08T14:50:39.806Z,8.60
2018-12-08T14:53:08.079Z,8.60
2018-12-08T14:55:36.552Z,8.60
2018-12-08T14:58:04.820Z,8.60
2018-12-08T15:00:33.219Z,8.60
2018-12-08T15:03:01.389Z,8.50
2018-12-08T15:05:29.771Z,8.50
2018-12-08T15:07:58.566Z,8.40
2018-12-08T15:10:26.788Z,8.30
2018-12-08T15:12:55.050Z,8.20
2018-12-08T15:15:23.317Z,8.00
2018-12-08T15:17:51.794Z,7.80
2018-12-08T15:20:20.054Z,7.70
2018-12-08T15:22:49.474Z,7.60
2018-12-08T15:25:18.059Z,7.70
2018-12-08T15:27:46.530Z,7.70
2018-12-08T15:30:15.225Z,7.60
2018-12-08T15:32:43.820Z,7.50
2018-12-08T15:35:12.047Z,7.50
2018-12-08T15:37:40.979Z,7.50
2018-12-08T15:40:10.272Z,7.40
2018-12-08T15:42:39.500Z,7.40
2018-12-08T15:45:09.880Z,7.30
2018-12-08T15:47:38.381Z,7.30
2018-12-08T15:50:08.821Z,7.40
2018-12-08T15:52:37.352Z,7.40
2018-12-08T15:55:06.075Z,7.40
2018-12-08T15:57:34.474Z,7.40
2018-12-08T16:00:05.107Z,7.40
2018-12-08T16:02:33.839Z,7.50
2018-12-08T16:05:02.118Z,7.50
2018-12-08T16:07:30.560Z,7.50
2018-12-08T16:09:59.116Z,7.50
2018-12-08T16:12:27.583Z,7.60
2018-12-08T16:14:56.218Z,7.70
2018-12-08T16:17:24.674Z,7.70
2018-12-08T16:19:53.330Z,7.80
2018-12-08T16:22:22.021Z,7.80
2018-12-08T16:24:50.502Z,7.80
2018-12-08T16:27:19.990Z,8.00
2018-12-08T16:29:48.486Z,8.00
2018-12-08T16:32:17.219Z,8.10
2018-12-08T16:34:45.887Z,8.10
2018-12-08T16:37:14.247Z,8.10
2018-12-08T16:39:42.529Z,8.20
2018-12-08T16:42:10.907Z,8.30
2018-12-08T16:44:39.364Z,8.30
2018-12-08T16:47:07.826Z,8.20
2018-12-08T16:49:36.346Z,8.20
2018-12-08T16:52:04.863Z,8.20
2018-12-08T16:54:33.280Z,8.30
2018-12-08T16:57:01.654Z,8.30
2018-12-08T16:59:30.182Z,8.50
2018-12-08T17:01:58.511Z,8.40
2018-12-08T17:04:35.061Z,8.40
2018-12-08T17:07:03.984Z,8.50
2018-12-08T17:09:32.348Z,8.60
2018-12-08T17:12:00.784Z,8.50
2018-12-08T17:14:29.495Z,8.50
2018-12-08T17:16:58.917Z,8.50
2018-12-08T17:19:27.243Z,8.50
2018-12-08T17:21:55.716Z,8.50
2018-12-08T17:24:24.239Z,8.50
2018-12-08T17:26:52.531Z,8.50
2018-12-08T17:29:21.599Z,8.50
2018-12-08T17:31:49.943Z,8.50
2018-12-08T17:34:18.540Z,8.40
2018-12-08T17:36:47.051Z,8.40
2018-12-08T17:39:15.522Z,8.50
2018-12-08T17:41:43.777Z,8.60
2018-12-08T17:44:12.058Z,8.60
2018-12-08T17:46:40.443Z,8.60
2018-12-08T17:49:08.908Z,8.60
2018-12-08T17:51:37.200Z,8.60
2018-12-08T17:54:09.189Z,8.50
2018-12-08T17:56:38.406Z,8.50
2018-12-08T17:59:06.831Z,8.50
2018-12-08T18:01:35.284Z,8.50
2018-12-08T18:04:03.627Z,8.50
2018-12-08T18:06:32.035Z,8.40
2018-12-08T18:09:00.575Z,8.40
2018-12-08T18:11:29.185Z,8.50
2018-12-08T18:13:57.603Z,8.40
2018-12-08T18:16:25.941Z,8.40
2018-12-08T18:18:54.346Z,8.40
2018-12-08T18:21:23.086Z,8.40
2018-12-08T18:23:51.470Z,8.40
2018-12-08T18:26:19.772Z,8.40
2018-12-08T18:28:48.382Z,8.40
2018-12-08T18:31:16.744Z,8.50
2018-12-08T18:33:45.221Z,8.40
2018-12-08T18:36:13.568Z,8.50
2018-12-08T18:38:41.948Z,8.40
2018-12-08T18:41:10.613Z,8.50
2018-12-08T18:43:38.881Z,8.50
2018-12-08T18:46:07.202Z,8.50
2018-12-08T18:48:35.535Z,8.50
2018-12-08T18:51:03.996Z,8.40
2018-12-08T18:53:32.300Z,8.40
2018-12-08T18:56:00.679Z,8.40
2018-12-08T18:58:28.974Z,8.40
2018-12-08T19:00:57.299Z,8.40
2018-12-08T19:03:25.671Z,8.30
2018-12-08T19:05:54.060Z,8.30
2018-12-08T19:08:22.562Z,8.40
2018-12-08T19:10:50.905Z,8.40
2018-12-08T19:13:19.300Z,8.30
2018-12-08T19:15:47.618Z,8.30
2018-12-08T19:18:16.058Z,8.30
2018-12-08T19:20:44.509Z,8.30
2018-12-08T19:23:12.993Z,8.30
2018-12-08T19:25:41.423Z,8.30
2018-12-08T19:28:09.766Z,8.30
2018-12-08T19:30:38.226Z,8.40
2018-12-08T19:33:14.356Z,8.50
2018-12-08T19:35:37.314Z,8.50
2018-12-08T19:38:05.583Z,8.60
2018-12-08T19:40:33.950Z,8.70
2018-12-08T19:43:02.992Z,8.70
2018-12-08T19:45:31.388Z,8.60
2018-12-08T19:47:59.782Z,8.60
2018-12-08T19:50:28.211Z,8.70
2018-12-08T19:52:56.536Z,8.70
2018-12-08T19:55:24.950Z,8.70
2018-12-08T19:57:53.296Z,8.60
2018-12-08T20:00:21.820Z,8.40
2018-12-08T20:02:50.108Z,8.40
2018-12-08T20:05:18.730Z,8.50
2018-12-08T20:07:47.423Z,8.40
2018-12-08T20:10:17.052Z,8.40
2018-12-08T20:12:45.326Z,8.30
2018-12-08T20:15:13.651Z,8.30
2018-12-08T20:17:42.180Z,8.40
2018-12-08T20:20:10.508Z,8.40
2018-12-08T20:22:38.977Z,8.30
2018-12-08T20:25:07.263Z,8.30
2018-12-08T20:27:35.510Z,8.20
2018-12-08T20:30:04.033Z,8.20
2018-12-08T20:32:32.626Z,8.20
2018-12-08T20:35:00.984Z,8.30
2018-12-08T20:37:29.257Z,8.30
2018-12-08T20:39:57.680Z,8.30
2018-12-08T20:42:26.203Z,8.30
2018-12-08T20:44:54.595Z,8.20
2018-12-08T20:47:22.874Z,8.30
2018-12-08T20:49:51.110Z,8.30
2018-12-08T20:52:19.503Z,8.30
2018-12-08T20:54:48.074Z,8.40
2018-12-08T20:57:16.581Z,8.30
2018-12-08T20:59:46.167Z,8.30
2018-12-08T21:02:14.491Z,8.40
2018-12-08T21:04:42.878Z,8.30
2018-12-08T21:07:11.375Z,8.30
2018-12-08T21:09:39.787Z,8.30
2018-12-08T21:12:08.131Z,8.20
2018-12-08T21:14:36.508Z,8.20
2018-12-08T21:17:05.060Z,8.10
2018-12-08T21:19:33.326Z,8.10
2018-12-08T21:22:01.669Z,8.00
2018-12-08T21:24:30.007Z,8.00
2018-12-08T21:26:58.427Z,8.00
2018-12-08T21:29:26.784Z,8.10
2018-12-08T21:31:55.253Z,8.10
2018-12-08T21:34:23.638Z,8.00
2018-12-08T21:36:52.163Z,8.00
2018-12-08T21:39:20.483Z,8.00
2018-12-08T21:41:49.734Z,8.00
2018-12-08T21:44:18.475Z,8.10
2018-12-08T21:46:46.932Z,8.00
2018-12-08T21:49:15.395Z,8.00
2018-12-08T21:51:43.876Z,8.00
2018-12-08T21:54:12.438Z,8.00
2018-12-08T21:56:41.105Z,8.10
2018-12-08T21:59:09.701Z,8.40
2018-12-08T22:01:38.605Z,8.40
2018-12-08T22:04:07.433Z,8.50
2018-12-08T22:06:35.685Z,8.60
2018-12-08T22:09:05.445Z,8.60
2018-12-08T22:11:34.070Z,8.60
2018-12-08T22:14:02.675Z,8.60
2018-12-08T22:16:31.075Z,8.60
2018-12-08T22:18:59.218Z,8.60
2018-12-08T22:21:27.957Z,8.60
2018-12-08T22:23:56.422Z,8.60
2018-12-08T22:26:25.079Z,8.60
2018-12-08T22:28:53.633Z,8.60
2018-12-08T22:31:22.106Z,8.60
2018-12-08T22:33:50.465Z,8.70
2018-12-08T22:36:19.083Z,8.70
2018-12-08T22:38:47.574Z,8.70
2018-12-08T22:41:16.144Z,8.70
2018-12-08T22:43:44.457Z,8.70
2018-12-08T22:46:12.998Z,8.70
2018-12-08T22:48:41.463Z,8.70
2018-12-08T22:51:10.186Z,8.70
2018-12-08T22:53:38.554Z,8.70
2018-12-08T22:56:07.056Z,8.80
2018-12-08T22:58:35.392Z,8.70
2018-12-08T23:01:03.895Z,8.70
2018-12-08T23:03:32.229Z,8.60
2018-12-08T23:06:00.425Z,8.60
2018-12-08T23:08:28.842Z,8.60
2018-12-08T23:10:57.170Z,8.60
2018-12-08T23:13:25.367Z,8.50
2018-12-08T23:15:53.698Z,8.50
2018-12-08T23:18:21.935Z,8.50
2018-12-08T23:20:50.297Z,8.50
2018-12-08T23:23:18.616Z,8.50
2018-12-08T23:25:47.030Z,8.50
2018-12-08T23:28:15.341Z,8.60
2018-12-08T23:30:43.972Z,8.60
2018-12-08T23:33:12.630Z,8.50
2018-12-08T23:35:40.986Z,8.60
2018-12-08T23:38:09.355Z,8.90
2018-12-08T23:40:37.756Z,8.90
2018-12-08T23:43:06.158Z,8.90
2018-12-08T23:45:34.434Z,9.00
2018-12-08T23:48:09.248Z,9.00
2018-12-08T23:50:37.750Z,9.20
2018-12-08T23:53:06.199Z,9.30
2018-12-08T23:55:34.555Z,9.30
2018-12-08T23:58:02.834Z,9.40
